createdAt,value
2019-05-17T00:02:00.820Z,10.21
2019-05-17T00:04:36.753Z,10.27
2019-05-17T00:07:12.940Z,10.34
2019-05-17T00:09:49.087Z,10.40
2019-05-17T00:12:27.154Z,10.46
2019-05-17T00:15:02.739Z,10.53
2019-05-17T00:17:40.553Z,10.56
2019-05-17T00:20:17.557Z,10.58
2019-05-17T00:22:53.576Z,10.59
2019-05-17T00:25:29.645Z,10.54
2019-05-17T00:28:07.362Z,10.50
2019-05-17T00:30:43.597Z,10.50
2019-05-17T00:33:19.554Z,10.48
2019-05-17T00:35:56.297Z,10.55
2019-05-17T00:38:45.571Z,10.54
2019-05-17T00:41:10.098Z,10.54
2019-05-17T00:43:46.451Z,10.58
2019-05-17T00:46:22.422Z,10.63
2019-05-17T00:48:58.361Z,10.69
2019-05-17T00:51:36.708Z,10.74
2019-05-17T00:54:12.135Z,10.72
2019-05-17T00:56:48.603Z,10.63
2019-05-17T00:59:26.320Z,10.57
2019-05-17T01:02:02.343Z,10.53
2019-05-17T01:04:38.298Z,10.50
2019-05-17T01:07:14.371Z,10.55
2019-05-17T01:09:50.317Z,10.60
2019-05-17T01:12:27.232Z,10.70
2019-05-17T01:15:03.664Z,10.78
2019-05-17T01:17:39.733Z,10.87
2019-05-17T01:20:17.432Z,10.93
2019-05-17T01:22:53.480Z,10.94
2019-05-17T01:25:29.433Z,10.98
2019-05-17T01:28:07.614Z,11.01
2019-05-17T01:30:46.257Z,11.03
2019-05-17T01:33:22.014Z,10.99
2019-05-17T01:35:57.971Z,10.90
2019-05-17T01:38:33.931Z,10.81
2019-05-17T01:41:09.895Z,10.76
2019-05-17T01:43:47.414Z,10.65
2019-05-17T01:46:23.551Z,10.55
2019-05-17T01:48:59.492Z,10.48
2019-05-17T01:51:37.059Z,10.49
2019-05-17T01:54:13.158Z,10.43
2019-05-17T01:56:49.124Z,10.37
2019-05-17T01:59:26.779Z,10.38
2019-05-17T02:02:04.394Z,10.38
2019-05-17T02:04:40.361Z,10.37
2019-05-17T02:07:17.295Z,10.34
2019-05-17T02:09:53.391Z,10.34
2019-05-17T02:12:29.558Z,10.34
2019-05-17T02:17:42.092Z,10.38
2019-05-17T02:20:18.350Z,10.42
2019-05-17T02:22:56.388Z,10.45
2019-05-17T02:25:31.995Z,10.46
2019-05-17T02:28:07.949Z,10.46
2019-05-17T02:30:44.543Z,10.45
2019-05-17T02:33:23.622Z,10.43
2019-05-17T02:35:58.483Z,10.39
2019-05-17T02:38:34.453Z,10.36
2019-05-17T02:41:13.830Z,10.35
2019-05-17T02:43:48.198Z,10.32
2019-05-17T02:46:24.170Z,10.27
2019-05-17T02:49:02.911Z,10.29
2019-05-17T02:51:37.703Z,10.27
2019-05-17T02:54:13.687Z,10.30
2019-05-17T02:56:49.616Z,10.29
2019-05-17T02:59:25.685Z,10.30
2019-05-17T03:02:03.454Z,10.37
2019-05-17T03:04:39.331Z,10.43
2019-05-17T03:07:15.302Z,10.40
2019-05-17T03:09:54.989Z,10.44
2019-05-17T03:12:29.143Z,10.47
2019-05-17T03:15:05.731Z,10.53
2019-05-17T03:17:43.335Z,10.59
2019-05-17T03:20:19.381Z,10.61
2019-05-17T03:22:55.440Z,10.61
2019-05-17T03:25:34.015Z,10.63
2019-05-17T03:28:13.200Z,10.66
2019-05-17T03:30:48.327Z,10.67
2019-05-17T03:33:27.108Z,10.63
2019-05-17T03:36:06.362Z,10.60
2019-05-17T03:38:43.145Z,10.59
2019-05-17T03:41:27.710Z,10.46
2019-05-17T03:43:56.200Z,10.51
2019-05-17T03:46:33.416Z,10.47
2019-05-17T03:49:12.841Z,10.52
2019-05-17T03:51:47.854Z,10.48
2019-05-17T03:54:23.916Z,10.41
2019-05-17T03:57:02.859Z,10.43
2019-05-17T03:59:38.589Z,10.43
2019-05-17T04:02:14.651Z,10.46
2019-05-17T04:04:52.946Z,10.55
2019-05-17T04:07:28.293Z,10.60
2019-05-17T04:10:06.400Z,10.69
2019-05-17T04:12:44.127Z,10.78
2019-05-17T04:15:23.659Z,10.83
2019-05-17T04:17:57.754Z,10.81
2019-05-17T04:20:34.842Z,10.85
2019-05-17T04:23:34.010Z,10.90
2019-05-17T04:26:13.517Z,10.89
2019-05-17T04:28:48.752Z,10.91
2019-05-17T04:31:24.684Z,10.96
2019-05-17T04:34:02.935Z,11.00
2019-05-17T04:36:38.264Z,11.01
2019-05-17T04:39:14.154Z,11.07
2019-05-17T04:41:54.409Z,11.12
2019-05-17T04:44:27.739Z,11.17
2019-05-17T04:47:03.705Z,11.19
2019-05-17T04:49:39.590Z,11.22
2019-05-17T04:52:15.546Z,11.21
2019-05-17T04:54:53.705Z,11.25
2019-05-17T04:57:32.347Z,11.25
2019-05-17T05:00:12.684Z,11.33
2019-05-17T05:02:46.816Z,11.35
2019-05-17T05:05:23.136Z,11.36
2019-05-17T05:07:59.061Z,11.33
2019-05-17T05:10:38.478Z,11.30
2019-05-17T05:13:13.390Z,11.23
2019-05-17T05:15:51.999Z,11.21
2019-05-17T05:18:27.352Z,11.19
2019-05-17T05:21:03.914Z,11.19
2019-05-17T05:23:42.269Z,11.17
2019-05-17T05:26:17.672Z,11.21
2019-05-17T05:28:53.745Z,11.26
2019-05-17T05:31:31.969Z,11.26
2019-05-17T05:34:07.600Z,11.28
2019-05-17T05:36:43.542Z,11.35
2019-05-17T05:39:19.504Z,11.39
2019-05-17T05:42:06.548Z,11.45
2019-05-17T05:44:33.157Z,11.56
2019-05-17T05:47:11.466Z,11.60
2019-05-17T05:49:46.820Z,11.63
2019-05-17T05:52:22.766Z,11.69
2019-05-17T05:54:58.721Z,11.79
2019-05-17T05:57:34.688Z,11.89
2019-05-17T06:00:14.178Z,11.91
2019-05-17T06:02:52.318Z,11.97
2019-05-17T06:05:27.871Z,11.93
2019-05-17T06:08:03.940Z,12.04
2019-05-17T06:10:42.656Z,12.12
2019-05-17T06:13:17.584Z,12.15
2019-05-17T06:15:53.548Z,12.12
2019-05-17T06:18:31.672Z,12.19
2019-05-17T06:21:08.219Z,12.12
2019-05-17T06:23:44.187Z,12.13
2019-05-17T06:26:23.473Z,12.13
2019-05-17T06:28:57.841Z,12.19
2019-05-17T06:31:36.876Z,12.20
2019-05-17T06:34:11.741Z,12.29
2019-05-17T06:36:47.858Z,12.34
2019-05-17T06:39:23.814Z,12.33
2019-05-17T06:41:59.771Z,12.38
2019-05-17T06:44:35.716Z,12.45
2019-05-17T06:47:12.033Z,12.52
2019-05-17T06:49:50.561Z,12.62
2019-05-17T06:52:25.951Z,12.68
2019-05-17T06:55:05.733Z,12.74
2019-05-17T06:57:39.631Z,12.80
2019-05-17T07:00:20.906Z,12.83
2019-05-17T07:02:54.287Z,12.78
2019-05-17T07:05:34.846Z,12.84
2019-05-17T07:08:11.927Z,12.84
2019-05-17T07:10:50.120Z,12.84
2019-05-17T07:13:26.597Z,12.89
2019-05-17T07:16:02.668Z,13.05
2019-05-17T07:18:40.016Z,13.10
2019-05-17T07:21:16.245Z,13.26
2019-05-17T07:23:52.173Z,13.37
2019-05-17T07:26:30.093Z,13.46
2019-05-17T07:29:05.828Z,13.50
2019-05-17T07:31:41.885Z,13.63
2019-05-17T07:34:19.914Z,13.67
2019-05-17T07:36:55.540Z,13.75
2019-05-17T07:39:31.496Z,13.91
2019-05-17T07:42:09.574Z,14.17
2019-05-17T07:44:45.087Z,14.29
2019-05-17T07:47:21.095Z,14.42
2019-05-17T07:49:57.160Z,14.37
2019-05-17T07:52:33.108Z,14.25
2019-05-17T07:55:10.992Z,14.25
2019-05-17T07:57:49.457Z,14.20
2019-05-17T08:00:24.897Z,14.23
2019-05-17T08:03:00.940Z,14.22
2019-05-17T08:05:36.871Z,14.33
2019-05-17T08:08:12.955Z,14.44
2019-05-17T08:10:50.928Z,14.50
2019-05-17T08:13:30.529Z,14.48
2019-05-17T08:16:04.294Z,14.47
2019-05-17T08:18:40.866Z,14.47
2019-05-17T08:21:16.821Z,14.46
2019-05-17T08:23:52.801Z,14.48
2019-05-17T08:26:29.683Z,14.41
2019-05-17T08:29:05.931Z,14.44
2019-05-17T08:31:41.979Z,14.39
2019-05-17T08:34:19.737Z,14.36
2019-05-17T08:36:56.866Z,14.44
2019-05-17T08:39:32.941Z,14.28
2019-05-17T08:42:09.782Z,14.40
2019-05-17T08:44:47.096Z,14.53
2019-05-17T08:47:24.078Z,14.47
2019-05-17T08:50:00.648Z,14.49
2019-05-17T08:52:36.813Z,14.43
2019-05-17T08:55:12.715Z,14.38
2019-05-17T08:57:50.016Z,14.39
2019-05-17T09:00:26.203Z,14.45
2019-05-17T09:03:02.272Z,14.50
2019-05-17T09:05:38.229Z,14.55
2019-05-17T09:08:14.185Z,14.52
2019-05-17T09:10:50.709Z,14.50
2019-05-17T09:13:26.712Z,14.46
2019-05-17T09:16:02.673Z,14.49
2019-05-17T09:18:39.434Z,14.63
2019-05-17T09:21:15.611Z,14.87
2019-05-17T09:23:51.551Z,15.29
2019-05-17T09:26:29.424Z,15.65
2019-05-17T09:29:05.103Z,16.00
2019-05-17T09:31:41.072Z,16.14
2019-05-17T09:34:17.039Z,16.17
2019-05-17T09:36:52.971Z,16.15
2019-05-17T09:39:29.506Z,16.09
2019-05-17T09:42:05.818Z,15.99
2019-05-17T09:44:41.773Z,15.93
2019-05-17T09:47:17.730Z,15.90
2019-05-17T09:49:53.675Z,15.93
2019-05-17T09:52:29.632Z,15.99
2019-05-17T09:55:06.850Z,16.09
2019-05-17T09:57:42.773Z,16.19
2019-05-17T10:00:20.933Z,16.26
2019-05-17T10:02:57.037Z,16.39
2019-05-17T10:05:32.997Z,16.37
2019-05-17T10:08:10.886Z,16.38
2019-05-17T10:10:46.651Z,16.47
2019-05-17T10:13:22.824Z,16.62
2019-05-17T10:16:00.465Z,16.74
2019-05-17T10:18:39.945Z,16.86
2019-05-17T10:21:15.303Z,16.99
2019-05-17T10:23:51.246Z,17.13
2019-05-17T10:26:30.190Z,17.22
2019-05-17T10:29:04.911Z,17.26
2019-05-17T10:31:40.968Z,17.14
2019-05-17T10:34:16.914Z,17.05
2019-05-17T10:36:53.128Z,17.16
2019-05-17T10:39:29.792Z,17.32
2019-05-17T10:42:06.023Z,17.27
2019-05-17T10:44:47.358Z,17.21
2019-05-17T10:47:19.974Z,17.12
2019-05-17T10:49:55.947Z,16.88
2019-05-17T10:52:31.993Z,16.93
2019-05-17T10:55:10.545Z,17.11
2019-05-17T10:57:46.293Z,17.28
2019-05-17T11:00:22.416Z,17.43
2019-05-17T11:03:00.402Z,17.63
2019-05-17T11:05:36.081Z,17.78
2019-05-17T11:08:12.027Z,17.94
2019-05-17T11:10:50.050Z,17.96
2019-05-17T11:13:26.715Z,17.80
2019-05-17T11:16:02.661Z,17.74
2019-05-17T11:18:38.730Z,17.86
2019-05-17T11:21:14.893Z,18.03
2019-05-17T11:23:50.865Z,18.15
2019-05-17T11:26:27.930Z,18.21
2019-05-17T11:29:03.888Z,18.26
2019-05-17T11:31:39.843Z,18.28
2019-05-17T11:34:15.812Z,18.42
2019-05-17T11:37:18.084Z,18.56
2019-05-17T11:43:16.107Z,18.64
2019-05-17T11:45:52.114Z,18.81
2019-05-17T11:48:34.133Z,19.07
2019-05-17T11:51:10.068Z,19.19
2019-05-17T11:53:46.026Z,19.35
2019-05-17T11:56:21.993Z,19.43
2019-05-17T11:58:57.938Z,19.45
2019-05-17T12:01:34.016Z,19.48
2019-05-17T12:04:09.959Z,19.40
2019-05-17T12:06:45.920Z,19.43
2019-05-17T12:09:35.186Z,19.53
2019-05-17T12:11:59.766Z,19.55
2019-05-17T12:14:35.736Z,19.55
2019-05-17T12:17:11.690Z,19.64
2019-05-17T12:19:47.643Z,19.46
2019-05-17T12:22:23.614Z,19.44
2019-05-17T12:24:59.561Z,19.42
2019-05-17T12:27:35.516Z,19.30
2019-05-17T12:30:12.016Z,19.12
2019-05-17T12:32:48.148Z,19.10
2019-05-17T12:35:24.102Z,19.12
2019-05-17T12:38:00.064Z,19.10
2019-05-17T12:40:36.034Z,19.19
2019-05-17T12:43:11.978Z,18.93
2019-05-17T12:46:00.184Z,18.63
2019-05-17T12:48:25.829Z,18.32
2019-05-17T12:51:01.786Z,18.15
2019-05-17T12:53:37.736Z,18.16
2019-05-17T12:56:13.686Z,18.03
2019-05-17T12:58:49.787Z,17.99
2019-05-17T13:01:25.903Z,18.05
2019-05-17T13:04:01.923Z,18.01
2019-05-17T13:06:38.039Z,17.83
2019-05-17T13:09:13.982Z,17.70
2019-05-17T13:11:50.155Z,17.67
2019-05-17T13:14:26.508Z,17.78
2019-05-17T13:17:02.464Z,17.78
2019-05-17T13:19:38.424Z,17.87
2019-05-17T13:22:14.391Z,18.00
2019-05-17T13:24:50.342Z,18.20
2019-05-17T13:27:26.285Z,18.25
2019-05-17T13:30:02.248Z,18.26
2019-05-17T13:32:38.518Z,18.33
2019-05-17T13:35:14.787Z,18.33
2019-05-17T13:37:50.730Z,18.36
2019-05-17T13:40:26.829Z,18.43
2019-05-17T13:43:02.862Z,18.51
2019-05-17T13:45:38.807Z,18.63
2019-05-17T13:48:14.880Z,18.73
2019-05-17T13:50:52.087Z,18.90
2019-05-17T13:53:28.417Z,19.05
2019-05-17T13:56:04.379Z,18.91
2019-05-17T13:58:40.542Z,19.00
2019-05-17T14:01:16.702Z,19.14
2019-05-17T14:03:52.654Z,19.15
2019-05-17T14:06:28.604Z,19.16
2019-05-17T14:09:06.680Z,19.26
2019-05-17T14:11:42.674Z,19.37
2019-05-17T14:14:18.635Z,19.50
2019-05-17T14:16:54.581Z,19.40
2019-05-17T14:19:30.559Z,19.39
2019-05-17T14:22:06.608Z,19.31
2019-05-17T14:24:43.082Z,19.41
2019-05-17T14:27:19.027Z,19.55
2019-05-17T14:29:54.975Z,19.71
2019-05-17T14:32:30.945Z,19.77
2019-05-17T14:35:07.428Z,19.84
2019-05-17T14:37:43.372Z,19.79
2019-05-17T14:40:19.531Z,19.75
2019-05-17T14:42:56.418Z,19.64
2019-05-17T14:45:32.351Z,19.63
2019-05-17T14:48:08.319Z,19.58
2019-05-17T14:50:44.265Z,19.52
2019-05-17T14:53:20.238Z,19.52
2019-05-17T14:55:56.182Z,19.45
2019-05-17T14:58:32.139Z,19.42
2019-05-17T15:01:08.098Z,19.47
2019-05-17T15:03:44.049Z,19.53
2019-05-17T15:06:20.938Z,19.61
2019-05-17T15:08:56.895Z,19.58
2019-05-17T15:11:32.850Z,19.61
2019-05-17T15:14:08.803Z,19.70
2019-05-17T15:16:44.867Z,19.78
2019-05-17T15:19:20.721Z,19.89
2019-05-17T15:21:56.664Z,19.92
2019-05-17T15:24:32.631Z,19.86
2019-05-17T15:27:08.489Z,19.96
2019-05-17T15:29:44.449Z,20.14
2019-05-17T15:32:20.395Z,20.19
2019-05-17T15:34:56.349Z,20.23
2019-05-17T15:37:32.305Z,20.37
2019-05-17T15:40:08.602Z,20.35
2019-05-17T15:42:44.981Z,20.46
2019-05-17T15:45:21.100Z,20.55
2019-05-17T15:48:03.053Z,20.65
2019-05-17T15:50:46.231Z,20.69
2019-05-17T15:59:59.703Z,20.41
2019-05-17T16:02:53.684Z,20.29
2019-05-17T16:05:47.649Z,20.13
2019-05-17T16:08:23.617Z,19.88
2019-05-17T16:10:59.561Z,19.65
2019-05-17T16:13:35.577Z,19.50
2019-05-17T16:16:11.606Z,19.38
2019-05-17T16:18:47.529Z,19.21
2019-05-17T16:21:23.492Z,19.14
2019-05-17T16:23:59.454Z,19.08
2019-05-17T16:26:35.403Z,19.05
2019-05-17T16:29:11.355Z,19.05
2019-05-17T16:31:47.325Z,18.99
2019-05-17T16:34:23.264Z,18.94
2019-05-17T16:36:59.159Z,18.84
2019-05-17T16:39:35.077Z,18.74
2019-05-17T16:42:11.082Z,18.63
2019-05-17T16:44:47.097Z,18.55
2019-05-17T16:47:22.991Z,18.47
2019-05-17T16:49:59.124Z,18.42
2019-05-17T16:52:35.125Z,18.41
2019-05-17T16:55:11.271Z,18.33
2019-05-17T16:57:47.381Z,18.30
2019-05-17T17:00:28.896Z,18.27
2019-05-17T17:03:05.490Z,18.23
2019-05-17T17:05:41.503Z,18.17
2019-05-17T17:08:17.380Z,18.12
2019-05-17T17:10:53.335Z,18.09
2019-05-17T17:13:33.215Z,18.01
2019-05-17T17:16:06.964Z,17.94
2019-05-17T17:18:42.858Z,17.88
2019-05-17T17:21:18.775Z,17.79
2019-05-17T17:23:54.748Z,17.74
2019-05-17T17:26:30.772Z,17.68
2019-05-17T17:29:06.664Z,17.62
2019-05-17T17:31:42.566Z,17.58
2019-05-17T17:34:18.498Z,17.52
2019-05-17T17:36:54.417Z,17.52
2019-05-17T17:39:30.274Z,17.48
2019-05-17T17:42:06.220Z,17.46
2019-05-17T17:44:42.076Z,17.44
2019-05-17T17:47:17.952Z,17.41
2019-05-17T17:49:53.864Z,17.37
2019-05-17T17:52:30.230Z,17.35
2019-05-17T17:55:07.389Z,17.33
2019-05-17T17:57:43.273Z,17.30
2019-05-17T18:00:20.237Z,17.28
2019-05-17T18:02:56.841Z,17.24
2019-05-17T18:05:32.802Z,17.19
2019-05-17T18:08:08.703Z,17.16
2019-05-17T18:10:46.692Z,17.09
2019-05-17T18:13:22.413Z,17.01
2019-05-17T18:15:58.346Z,16.95
2019-05-17T18:18:34.232Z,16.91
2019-05-17T18:21:10.128Z,16.89
2019-05-17T18:23:46.116Z,16.85
2019-05-17T18:26:22.035Z,16.82
2019-05-17T18:28:57.943Z,16.78
2019-05-17T18:31:33.915Z,16.76
2019-05-17T18:34:10.920Z,16.71
2019-05-17T18:36:46.833Z,16.63
2019-05-17T18:39:22.715Z,16.59
2019-05-17T18:41:58.712Z,16.56
2019-05-17T18:44:34.629Z,16.51
2019-05-17T18:47:10.669Z,16.50
2019-05-17T18:49:46.627Z,16.44
2019-05-17T18:52:22.689Z,16.40
2019-05-17T18:54:59.507Z,16.36
2019-05-17T18:57:35.440Z,16.29
2019-05-17T19:00:13.685Z,16.21
2019-05-17T19:02:49.569Z,16.12
2019-05-17T19:05:25.530Z,16.06
2019-05-17T19:08:01.430Z,15.97
2019-05-17T19:10:38.301Z,15.92
2019-05-17T19:13:14.219Z,15.83
2019-05-17T19:15:50.166Z,15.72
2019-05-17T19:18:26.059Z,15.64
2019-05-17T19:21:01.922Z,15.54
2019-05-17T19:23:37.834Z,15.43
2019-05-17T19:26:13.718Z,15.33
2019-05-17T19:28:49.683Z,15.17
2019-05-17T19:31:25.545Z,15.09
2019-05-17T19:34:02.434Z,14.97
2019-05-17T19:36:41.375Z,14.89
2019-05-17T19:39:16.059Z,14.80
2019-05-17T19:41:51.927Z,14.73
2019-05-17T19:45:11.914Z,14.66
2019-05-17T19:48:12.110Z,14.58
2019-05-17T19:50:48.071Z,14.47
2019-05-17T19:53:24.035Z,14.40
2019-05-17T19:55:59.988Z,14.32
2019-05-17T19:58:36.043Z,14.23
2019-05-17T20:01:12.000Z,14.16
2019-05-17T20:03:48.471Z,14.12
2019-05-17T20:06:24.830Z,14.05
2019-05-17T20:09:00.793Z,14.00
2019-05-17T20:11:38.278Z,13.95
2019-05-17T20:14:14.234Z,13.93
2019-05-17T20:16:50.184Z,13.91
2019-05-17T20:19:26.158Z,13.87
2019-05-17T20:22:02.322Z,13.86
2019-05-17T20:24:38.264Z,13.81
2019-05-17T20:27:14.240Z,13.79
2019-05-17T20:29:50.288Z,13.76
2019-05-17T20:32:27.880Z,13.74
2019-05-17T20:35:07.829Z,13.71
2019-05-17T20:37:43.714Z,13.67
2019-05-17T20:40:19.938Z,13.63
2019-05-17T20:42:55.907Z,13.58
2019-05-17T20:45:33.696Z,13.53
2019-05-17T20:48:09.866Z,13.48
2019-05-17T20:50:45.815Z,13.46
2019-05-17T20:53:21.762Z,13.39
2019-05-17T20:55:57.743Z,13.37
2019-05-17T20:58:33.689Z,13.35
2019-05-17T21:01:09.649Z,13.27
2019-05-17T21:03:45.604Z,13.19
2019-05-17T21:06:21.558Z,13.15
2019-05-17T21:08:57.520Z,13.12
2019-05-17T21:11:33.377Z,13.10
2019-05-17T21:14:09.319Z,13.03
2019-05-17T21:16:45.282Z,12.86
2019-05-17T21:19:21.173Z,12.75
2019-05-17T21:21:58.199Z,12.67
2019-05-17T21:24:34.174Z,12.65
2019-05-17T21:27:10.133Z,12.63
2019-05-17T21:29:46.092Z,12.62
2019-05-17T21:32:22.045Z,12.63
2019-05-17T21:34:58.257Z,12.62
2019-05-17T21:37:35.201Z,12.61
2019-05-17T21:43:17.866Z,12.54
2019-05-17T21:46:03.573Z,12.49
2019-05-17T21:48:33.141Z,12.47
2019-05-17T21:51:09.056Z,12.47
2019-05-17T21:53:45.026Z,12.45
2019-05-17T21:56:20.974Z,12.44
2019-05-17T21:58:57.043Z,12.42
2019-05-17T22:01:34.841Z,12.36
2019-05-17T22:04:10.802Z,12.34
2019-05-17T22:06:46.735Z,12.38
2019-05-17T22:09:22.633Z,12.40
2019-05-17T22:12:06.850Z,12.40
2019-05-17T22:14:42.811Z,12.40
2019-05-17T22:17:18.723Z,12.37
2019-05-17T22:19:54.728Z,12.28
2019-05-17T22:22:30.675Z,12.20
2019-05-17T22:25:07.366Z,12.17
2019-05-17T22:27:43.408Z,12.15
2019-05-17T22:30:19.372Z,12.19
2019-05-17T22:32:55.437Z,12.25
2019-05-17T22:35:31.295Z,12.31
2019-05-17T22:38:07.237Z,12.37
2019-05-17T22:40:43.196Z,12.43
2019-05-17T22:43:20.225Z,12.48
2019-05-17T22:45:56.241Z,12.52
2019-05-17T22:48:32.195Z,12.51
2019-05-17T22:51:08.134Z,12.52
2019-05-17T22:53:44.128Z,12.48
2019-05-17T22:56:20.061Z,12.44
2019-05-17T22:58:56.005Z,12.34
2019-05-17T23:01:31.961Z,12.26
2019-05-17T23:04:07.928Z,12.20
2019-05-17T23:06:43.873Z,12.16
2019-05-17T23:09:20.152Z,12.08
2019-05-17T23:11:56.108Z,12.02
2019-05-17T23:14:32.021Z,11.97
2019-05-17T23:17:08.021Z,11.89
2019-05-17T23:19:43.967Z,11.79
2019-05-17T23:22:19.949Z,11.76
2019-05-17T23:24:55.887Z,11.73
2019-05-17T23:27:32.154Z,11.73
2019-05-17T23:30:08.891Z,11.71
2019-05-17T23:32:44.883Z,11.71
2019-05-17T23:35:20.942Z,11.68
2019-05-17T23:37:57.105Z,11.64
2019-05-17T23:40:33.061Z,11.60
2019-05-17T23:43:10.136Z,11.58
2019-05-17T23:45:46.083Z,11.52
2019-05-17T23:48:22.129Z,11.39
2019-05-17T23:50:58.114Z,11.35
2019-05-17T23:53:35.181Z,11.33
2019-05-17T23:56:11.146Z,11.34
2019-05-17T23:58:47.102Z,11.36
